createdAt,value
2023-02-26T00:00:12.370Z,99582.09
2023-02-26T00:02:39.476Z,99585.34
2023-02-26T00:05:06.945Z,99574.88
2023-02-26T00:07:34.128Z,99576.13
2023-02-26T00:10:03.910Z,99583.78
2023-02-26T00:12:31.176Z,99580.97
2023-02-26T00:14:58.157Z,99585.47
2023-02-26T00:17:52.204Z,99589.84
2023-02-26T00:20:19.144Z,99589.88
2023-02-26T00:22:46.161Z,99586.31
2023-02-26T00:25:12.973Z,99587.63
2023-02-26T00:27:40.177Z,99582.63
2023-02-26T00:30:08.646Z,99589.97
2023-02-26T00:32:35.965Z,99588.84
2023-02-26T00:35:04.886Z,99586.91
2023-02-26T00:37:53.028Z,99591.91
2023-02-26T00:40:24.209Z,99593.63
2023-02-26T00:42:51.104Z,99591.88
2023-02-26T00:45:18.216Z,99587.91
2023-02-26T00:47:49.986Z,99594.69
2023-02-26T00:50:25.517Z,99596.03
2023-02-26T00:52:52.352Z,99600.00
2023-02-26T00:55:19.672Z,99595.03
2023-02-26T00:57:46.510Z,99593.50
2023-02-26T01:00:14.200Z,99593.41
2023-02-26T01:02:41.765Z,99597.47
2023-02-26T01:05:09.391Z,99598.47
2023-02-26T01:08:21.012Z,99593.38
2023-02-26T01:10:47.891Z,99598.25
2023-02-26T01:13:15.375Z,99593.28
2023-02-26T01:15:48.387Z,99596.28
2023-02-26T01:18:26.396Z,99602.25
2023-02-26T01:20:57.509Z,99588.94
2023-02-26T01:23:26.502Z,99597.38
2023-02-26T01:26:29.200Z,99591.09
2023-02-26T01:28:56.516Z,99591.94
2023-02-26T01:31:34.577Z,99590.59
2023-02-26T01:34:07.541Z,99592.38
2023-02-26T01:36:41.483Z,99587.97
2023-02-26T01:39:29.151Z,99588.16
2023-02-26T01:42:01.275Z,99596.84
2023-02-26T01:44:47.455Z,99596.13
2023-02-26T01:47:39.030Z,99598.81
2023-02-26T01:50:19.292Z,99601.69
2023-02-26T01:52:49.087Z,99602.78
2023-02-26T01:55:21.255Z,99603.22
2023-02-26T01:57:48.898Z,99603.13
2023-02-26T02:00:16.568Z,99603.88
2023-02-26T02:02:43.342Z,99603.81
2023-02-26T02:05:36.530Z,99602.53
2023-02-26T02:08:03.802Z,99598.81
2023-02-26T02:10:30.648Z,99592.50
2023-02-26T02:13:28.218Z,99595.88
2023-02-26T02:16:02.108Z,99591.81
2023-02-26T02:18:57.144Z,99595.69
2023-02-26T02:21:41.221Z,99600.28
2023-02-26T02:24:25.540Z,99600.53
2023-02-26T02:26:59.870Z,99605.78
2023-02-26T02:29:35.593Z,99603.75
2023-02-26T02:32:10.598Z,99614.81
2023-02-26T02:34:46.370Z,99612.50
2023-02-26T02:37:27.105Z,99620.78
2023-02-26T02:40:00.729Z,99617.31
2023-02-26T02:42:33.746Z,99625.16
2023-02-26T02:45:09.462Z,99625.00
2023-02-26T02:47:39.476Z,99621.53
2023-02-26T02:50:13.547Z,99628.38
2023-02-26T02:52:47.882Z,99621.97
2023-02-26T02:55:22.569Z,99629.47
2023-02-26T02:58:00.636Z,99628.13
2023-02-26T03:00:29.324Z,99627.78
2023-02-26T03:03:14.809Z,99631.47
2023-02-26T03:05:41.913Z,99636.56
2023-02-26T03:08:12.810Z,99633.69
2023-02-26T03:10:39.703Z,99637.16
2023-02-26T03:13:06.640Z,99641.88
2023-02-26T03:15:42.809Z,99639.09
2023-02-26T03:18:34.475Z,99640.28
2023-02-26T03:21:13.900Z,99635.97
2023-02-26T03:23:54.842Z,99649.97
2023-02-26T03:26:30.324Z,99650.53
2023-02-26T03:29:00.144Z,99656.63
2023-02-26T03:31:32.465Z,99653.72
2023-02-26T03:34:04.790Z,99659.13
2023-02-26T03:36:34.717Z,99663.19
2023-02-26T03:39:16.754Z,99662.78
2023-02-26T03:41:56.466Z,99664.63
2023-02-26T03:44:46.570Z,99662.84
2023-02-26T03:47:15.320Z,99671.66
2023-02-26T03:49:52.232Z,99673.75
2023-02-26T03:52:21.295Z,99673.34
2023-02-26T03:55:14.266Z,99677.31
2023-02-26T03:57:53.924Z,99677.31
2023-02-26T04:01:06.682Z,99690.09
2023-02-26T04:03:49.784Z,99689.84
2023-02-26T04:06:16.695Z,99694.94
2023-02-26T04:08:43.912Z,99694.41
2023-02-26T04:11:19.925Z,99699.44
2023-02-26T04:13:47.633Z,99703.31
2023-02-26T04:16:14.758Z,99708.34
2023-02-26T04:18:42.542Z,99700.50
2023-02-26T04:21:14.776Z,99698.34
2023-02-26T04:23:41.728Z,99698.06
2023-02-26T04:26:09.097Z,99708.47
2023-02-26T04:28:39.735Z,99707.63
2023-02-26T04:31:07.014Z,99713.69
2023-02-26T04:33:33.941Z,99717.75
2023-02-26T04:36:01.517Z,99721.13
2023-02-26T04:38:28.533Z,99714.94
2023-02-26T04:40:55.507Z,99726.63
2023-02-26T04:43:23.501Z,99725.19
2023-02-26T04:46:17.722Z,99727.19
2023-02-26T04:48:44.545Z,99731.81
2023-02-26T04:51:11.641Z,99731.03
2023-02-26T04:53:38.381Z,99735.97
2023-02-26T04:56:07.889Z,99736.81
2023-02-26T04:58:34.730Z,99742.19
2023-02-26T05:01:07.108Z,99745.94
2023-02-26T05:03:33.883Z,99735.56
2023-02-26T05:06:00.708Z,99742.41
2023-02-26T05:08:27.570Z,99735.81
2023-02-26T05:10:54.434Z,99735.41
2023-02-26T05:13:21.162Z,99739.03
2023-02-26T05:15:47.958Z,99747.41
2023-02-26T05:18:14.727Z,99751.16
2023-02-26T05:20:41.656Z,99745.03
2023-02-26T05:23:08.377Z,99750.09
2023-02-26T05:25:35.136Z,99752.72
2023-02-26T05:28:02.830Z,99759.88
2023-02-26T05:30:29.864Z,99754.09
2023-02-26T05:32:56.649Z,99764.75
2023-02-26T05:35:23.304Z,99758.13
2023-02-26T05:37:50.024Z,99773.91
2023-02-26T05:40:16.812Z,99772.91
2023-02-26T05:42:43.906Z,99777.94
2023-02-26T05:45:10.937Z,99776.31
2023-02-26T05:47:38.975Z,99778.47
2023-02-26T05:50:06.184Z,99783.00
2023-02-26T05:52:32.994Z,99780.28
2023-02-26T05:54:59.675Z,99785.47
2023-02-26T05:57:26.340Z,99788.28
2023-02-26T05:59:53.051Z,99797.13
2023-02-26T06:02:19.802Z,99801.66
2023-02-26T06:04:46.893Z,99797.97
2023-02-26T06:07:13.641Z,99799.97
2023-02-26T06:09:40.547Z,99804.44
2023-02-26T06:12:07.718Z,99807.16
2023-02-26T06:14:35.153Z,99815.97
2023-02-26T06:17:03.611Z,99815.81
2023-02-26T06:19:30.427Z,99814.56
2023-02-26T06:21:57.140Z,99820.50
2023-02-26T06:24:23.908Z,99832.81
2023-02-26T06:26:50.646Z,99834.56
2023-02-26T06:29:18.533Z,99853.50
2023-02-26T06:31:45.616Z,99851.19
2023-02-26T06:34:12.665Z,99855.50
2023-02-26T06:36:39.483Z,99862.97
2023-02-26T06:39:06.301Z,99862.66
2023-02-26T06:41:33.009Z,99865.16
2023-02-26T06:43:59.907Z,99875.88
2023-02-26T06:46:27.018Z,99882.19
2023-02-26T06:48:54.034Z,99885.00
2023-02-26T06:51:20.973Z,99884.81
2023-02-26T06:53:47.702Z,99894.13
2023-02-26T06:56:14.942Z,99900.97
2023-02-26T06:58:41.595Z,99911.28
2023-02-26T07:01:08.340Z,99913.81
2023-02-26T07:03:35.328Z,99912.25
2023-02-26T07:06:23.686Z,99915.50
2023-02-26T07:08:48.682Z,99909.88
2023-02-26T07:11:15.354Z,99916.78
2023-02-26T07:13:42.169Z,99921.47
2023-02-26T07:16:08.984Z,99924.09
2023-02-26T07:18:36.715Z,99927.91
2023-02-26T07:21:04.526Z,99930.06
2023-02-26T07:23:31.339Z,99930.47
2023-02-26T07:25:58.207Z,99921.69
2023-02-26T07:28:25.185Z,99929.84
2023-02-26T07:30:57.311Z,99925.94
2023-02-26T07:33:24.944Z,99934.19
2023-02-26T07:35:51.680Z,99942.94
2023-02-26T07:38:19.680Z,99930.41
2023-02-26T07:40:47.176Z,99946.09
2023-02-26T07:43:13.953Z,99948.56
2023-02-26T07:45:40.739Z,99951.66
2023-02-26T07:48:07.497Z,99956.63
2023-02-26T07:50:34.147Z,99959.97
2023-02-26T07:53:00.817Z,99961.50
2023-02-26T07:55:27.874Z,99964.63
2023-02-26T07:57:54.626Z,99964.06
2023-02-26T08:00:21.631Z,99954.78
2023-02-26T08:02:48.397Z,99962.16
2023-02-26T08:05:15.101Z,99961.38
2023-02-26T08:07:41.906Z,99969.94
2023-02-26T08:10:09.493Z,99968.09
2023-02-26T08:12:36.806Z,99967.47
2023-02-26T08:15:05.229Z,99969.09
2023-02-26T08:17:32.260Z,99969.94
2023-02-26T08:19:59.051Z,99973.81
2023-02-26T08:22:25.886Z,99976.31
2023-02-26T08:24:52.576Z,99967.94
2023-02-26T08:27:19.380Z,99967.72
2023-02-26T08:29:46.393Z,99981.69
2023-02-26T08:32:13.548Z,99986.66
2023-02-26T08:34:40.316Z,99994.25
2023-02-26T08:37:09.276Z,99988.53
2023-02-26T08:39:38.264Z,99995.59
2023-02-26T08:42:09.404Z,99992.69
2023-02-26T08:44:36.398Z,99990.16
2023-02-26T08:47:03.760Z,99997.13
2023-02-26T08:49:30.482Z,100003.00
2023-02-26T08:51:57.190Z,100019.88
2023-02-26T08:54:23.916Z,100009.19
2023-02-26T08:56:50.597Z,100022.03
2023-02-26T08:59:17.351Z,100021.06
2023-02-26T09:01:44.138Z,100002.66
2023-02-26T09:04:10.872Z,100013.13
2023-02-26T09:06:37.596Z,100007.22
2023-02-26T09:09:04.437Z,100023.75
2023-02-26T09:11:32.525Z,100030.81
2023-02-26T09:13:59.519Z,100036.03
2023-02-26T09:16:26.700Z,100020.75
2023-02-26T09:18:54.543Z,100036.88
2023-02-26T09:21:21.712Z,100032.56
2023-02-26T09:23:48.367Z,100036.06
2023-02-26T09:26:15.029Z,100032.91
2023-02-26T09:28:41.827Z,100041.00
2023-02-26T09:31:08.668Z,100055.63
2023-02-26T09:33:35.984Z,100107.03
2023-02-26T09:36:02.746Z,100048.09
2023-02-26T09:38:29.396Z,100061.38
2023-02-26T09:41:16.597Z,100051.06
2023-02-26T09:43:58.509Z,100066.72
2023-02-26T09:47:02.907Z,100061.47
2023-02-26T09:49:34.677Z,100072.47
2023-02-26T09:52:13.205Z,100069.03
2023-02-26T09:54:52.962Z,100072.78
2023-02-26T09:57:29.625Z,100075.69
2023-02-26T09:59:56.949Z,100100.44
2023-02-26T10:02:34.457Z,100109.41
2023-02-26T10:05:19.161Z,100118.09
2023-02-26T10:07:59.789Z,100095.00
2023-02-26T10:10:34.777Z,100092.88
2023-02-26T10:13:06.913Z,100099.59
2023-02-26T10:15:57.851Z,100131.28
2023-02-26T10:18:28.102Z,100125.59
2023-02-26T10:20:58.826Z,100105.13
2023-02-26T10:23:56.261Z,100115.50
2023-02-26T10:26:25.951Z,100103.41
2023-02-26T10:29:07.780Z,100128.88
2023-02-26T10:31:43.407Z,100122.22
2023-02-26T10:34:42.114Z,100115.16
2023-02-26T10:37:08.723Z,100138.34
2023-02-26T10:39:44.836Z,100118.41
2023-02-26T10:42:24.111Z,100153.84
2023-02-26T10:45:12.602Z,100139.41
2023-02-26T10:48:10.245Z,100131.91
2023-02-26T10:50:39.022Z,100139.75
2023-02-26T10:53:05.885Z,100145.69
2023-02-26T10:55:37.212Z,100138.84
2023-02-26T10:58:08.139Z,100143.91
2023-02-26T11:00:37.641Z,100138.28
2023-02-26T11:03:05.777Z,100132.63
2023-02-26T11:05:33.595Z,100132.25
2023-02-26T11:08:04.243Z,100130.75
2023-02-26T11:10:45.434Z,100158.78
2023-02-26T11:13:12.897Z,100143.50
2023-02-26T11:15:39.658Z,100135.22
2023-02-26T11:18:12.635Z,100146.31
2023-02-26T11:20:42.856Z,100146.63
2023-02-26T11:23:31.117Z,100139.41
2023-02-26T11:26:02.513Z,100135.00
2023-02-26T11:28:35.058Z,100141.22
2023-02-26T11:31:12.395Z,100137.56
2023-02-26T11:33:40.983Z,100143.13
2023-02-26T11:36:11.793Z,100133.47
2023-02-26T11:38:38.814Z,100149.41
2023-02-26T11:41:05.946Z,100130.31
2023-02-26T11:43:48.583Z,100144.69
2023-02-26T11:46:15.859Z,100152.97
2023-02-26T11:48:49.423Z,100146.03
2023-02-26T11:51:20.844Z,100135.63
2023-02-26T11:53:56.616Z,100145.47
2023-02-26T11:56:31.459Z,100162.97
2023-02-26T11:59:02.571Z,100161.81
2023-02-26T12:01:29.984Z,100146.16
2023-02-26T12:04:00.109Z,100146.94
2023-02-26T12:06:26.893Z,100143.31
2023-02-26T12:08:54.162Z,100158.50
2023-02-26T12:11:50.456Z,100134.78
2023-02-26T12:14:48.473Z,100141.72
2023-02-26T12:17:33.892Z,100139.44
2023-02-26T12:20:22.160Z,100140.44
2023-02-26T12:22:56.004Z,100148.03
2023-02-26T12:25:34.529Z,100174.47
2023-02-26T12:28:30.227Z,100152.53
2023-02-26T12:31:18.090Z,100132.47
2023-02-26T12:34:07.994Z,100140.56
2023-02-26T12:37:02.961Z,100140.50
2023-02-26T12:39:54.005Z,100123.41
2023-02-26T12:42:31.946Z,100152.44
2023-02-26T12:45:36.394Z,100172.59
2023-02-26T12:48:23.129Z,100150.53
2023-02-26T12:51:12.709Z,100170.00
2023-02-26T12:54:27.072Z,100175.03
2023-02-26T12:56:56.580Z,100181.56
2023-02-26T12:59:44.876Z,100163.31
2023-02-26T13:02:47.948Z,100180.88
2023-02-26T13:05:36.766Z,100176.16
2023-02-26T13:08:12.602Z,100210.00
2023-02-26T13:11:13.272Z,100197.34
2023-02-26T13:14:17.054Z,100186.06
2023-02-26T13:16:51.488Z,100162.44
2023-02-26T13:19:25.946Z,100167.16
2023-02-26T13:22:03.395Z,100166.47
2023-02-26T13:24:41.313Z,100174.38
2023-02-26T13:27:09.860Z,100187.44
2023-02-26T13:29:49.434Z,100166.25
2023-02-26T13:32:24.094Z,100175.13
2023-02-26T13:35:04.168Z,100180.03
2023-02-26T13:37:34.509Z,100174.13
2023-02-26T13:40:22.704Z,100175.81
2023-02-26T13:42:58.784Z,100166.09
2023-02-26T13:45:32.129Z,100169.25
2023-02-26T13:48:08.306Z,100169.88
2023-02-26T13:50:50.364Z,100167.13
2023-02-26T13:53:40.066Z,100171.22
2023-02-26T13:56:20.983Z,100177.47
2023-02-26T13:59:03.480Z,100175.75
2023-02-26T14:01:34.972Z,100169.75
2023-02-26T14:04:20.163Z,100170.13
2023-02-26T14:06:57.416Z,100184.16
2023-02-26T14:09:24.060Z,100215.84
2023-02-26T14:12:01.212Z,100171.28
2023-02-26T14:14:59.993Z,100187.22
2023-02-26T14:17:28.913Z,100187.59
2023-02-26T14:19:55.784Z,100211.28
2023-02-26T14:22:31.245Z,100192.84
2023-02-26T14:25:39.274Z,100204.03
2023-02-26T14:28:41.694Z,100197.31
2023-02-26T14:31:14.470Z,100197.44
2023-02-26T14:33:56.393Z,100194.47
2023-02-26T14:36:46.480Z,100206.44
2023-02-26T14:39:25.876Z,100190.94
2023-02-26T14:41:57.695Z,100226.00
2023-02-26T14:44:28.395Z,100195.81
2023-02-26T14:46:55.724Z,100208.13
2023-02-26T14:49:30.224Z,100211.06
2023-02-26T14:52:24.031Z,100205.34
2023-02-26T14:55:09.431Z,100217.03
2023-02-26T14:57:43.364Z,100221.13
2023-02-26T15:00:47.596Z,100223.94
2023-02-26T15:03:40.599Z,100239.50
2023-02-26T15:06:16.283Z,100232.44
2023-02-26T15:08:43.035Z,100226.06
2023-02-26T15:11:12.488Z,100234.69
2023-02-26T15:14:05.241Z,100230.38
2023-02-26T15:16:53.541Z,100225.78
2023-02-26T15:19:44.856Z,100221.59
2023-02-26T15:22:30.049Z,100235.47
2023-02-26T15:24:56.878Z,100227.88
2023-02-26T15:27:23.580Z,100231.50
2023-02-26T15:29:52.896Z,100227.47
2023-02-26T15:32:28.702Z,100231.78
2023-02-26T15:35:18.078Z,100235.00
2023-02-26T15:37:50.186Z,100242.41
2023-02-26T15:40:17.288Z,100252.09
2023-02-26T15:42:45.495Z,100252.34
2023-02-26T15:45:21.854Z,100270.59
2023-02-26T15:47:51.486Z,100271.94
2023-02-26T15:50:18.407Z,100238.94
2023-02-26T15:52:48.513Z,100243.25
2023-02-26T15:55:17.929Z,100244.25
2023-02-26T15:57:44.754Z,100239.94
2023-02-26T16:00:17.592Z,100253.72
2023-02-26T16:02:45.600Z,100242.13
2023-02-26T16:05:14.663Z,100250.72
2023-02-26T16:07:41.574Z,100266.91
2023-02-26T16:10:16.805Z,100259.63
2023-02-26T16:12:44.599Z,100279.53
2023-02-26T16:15:16.233Z,100273.56
2023-02-26T16:17:45.073Z,100285.25
2023-02-26T16:20:15.847Z,100279.28
2023-02-26T16:22:51.620Z,100275.28
2023-02-26T16:25:37.024Z,100270.78
2023-02-26T16:28:06.768Z,100278.94
2023-02-26T16:30:36.643Z,100270.53
2023-02-26T16:33:05.773Z,100280.88
2023-02-26T16:35:37.332Z,100285.94
2023-02-26T16:38:26.231Z,100290.00
2023-02-26T16:41:01.064Z,100302.31
2023-02-26T16:43:47.608Z,100294.38
2023-02-26T16:46:16.665Z,100308.25
2023-02-26T16:48:55.193Z,100342.88
2023-02-26T16:51:25.243Z,100320.03
2023-02-26T16:54:03.267Z,100330.34
2023-02-26T16:56:33.733Z,100331.69
2023-02-26T16:59:03.007Z,100316.47
2023-02-26T17:01:36.064Z,100326.16
2023-02-26T17:04:03.916Z,100323.53
2023-02-26T17:06:31.398Z,100329.66
2023-02-26T17:08:59.455Z,100342.63
2023-02-26T17:11:33.021Z,100338.72
2023-02-26T17:14:15.457Z,100352.16
2023-02-26T17:16:42.200Z,100346.28
2023-02-26T17:19:09.503Z,100350.81
2023-02-26T17:21:42.650Z,100357.53
2023-02-26T17:24:17.316Z,100360.00
2023-02-26T17:26:45.123Z,100362.63
2023-02-26T17:29:23.007Z,100362.84
2023-02-26T17:31:50.636Z,100372.31
2023-02-26T17:34:18.804Z,100374.25
2023-02-26T17:36:45.454Z,100367.56
2023-02-26T17:39:13.247Z,100379.88
2023-02-26T17:41:43.290Z,100390.25
2023-02-26T17:44:10.312Z,100382.44
2023-02-26T17:46:37.305Z,100392.06
2023-02-26T17:49:03.989Z,100408.59
2023-02-26T17:51:31.875Z,100416.78
2023-02-26T17:53:58.622Z,100418.78
2023-02-26T17:56:28.452Z,100426.00
2023-02-26T17:58:56.294Z,100416.50
2023-02-26T18:01:23.600Z,100441.91
2023-02-26T18:03:50.591Z,100427.31
2023-02-26T18:06:17.377Z,100422.78
2023-02-26T18:08:44.715Z,100419.91
2023-02-26T18:11:12.742Z,100437.59
2023-02-26T18:13:39.482Z,100457.22
2023-02-26T18:16:07.440Z,100450.69
2023-02-26T18:18:34.227Z,100435.94
2023-02-26T18:21:01.046Z,100436.00
2023-02-26T18:23:27.776Z,100439.72
2023-02-26T18:25:54.728Z,100450.25
2023-02-26T18:28:23.599Z,100464.41
2023-02-26T18:30:51.098Z,100436.03
2023-02-26T18:33:18.299Z,100434.59
2023-02-26T18:35:47.062Z,100446.72
2023-02-26T18:38:15.760Z,100444.75
2023-02-26T18:40:42.872Z,100443.97
2023-02-26T18:43:12.464Z,100437.75
2023-02-26T18:45:40.355Z,100444.63
2023-02-26T18:48:09.219Z,100434.81
2023-02-26T18:50:35.931Z,100456.56
2023-02-26T18:53:02.943Z,100458.56
2023-02-26T18:55:30.220Z,100453.47
2023-02-26T18:57:57.593Z,100456.22
2023-02-26T19:00:24.712Z,100456.97
2023-02-26T19:02:51.871Z,100465.13
2023-02-26T19:05:23.181Z,100476.34
2023-02-26T19:07:50.833Z,100451.81
2023-02-26T19:10:18.877Z,100466.84
2023-02-26T19:12:45.935Z,100472.97
2023-02-26T19:15:13.002Z,100477.69
2023-02-26T19:17:40.871Z,100465.53
2023-02-26T19:20:08.865Z,100467.78
2023-02-26T19:22:35.541Z,100470.97
2023-02-26T19:25:02.368Z,100486.50
2023-02-26T19:27:29.338Z,100473.91
2023-02-26T19:29:56.039Z,100481.34
2023-02-26T19:32:22.970Z,100483.59
2023-02-26T19:34:49.792Z,100481.56
2023-02-26T19:37:16.478Z,100492.28
2023-02-26T19:39:43.207Z,100491.25
2023-02-26T19:42:10.194Z,100496.38
2023-02-26T19:44:36.914Z,100493.00
2023-02-26T19:47:03.649Z,100501.22
2023-02-26T19:49:30.340Z,100497.28
2023-02-26T19:51:57.080Z,100501.78
2023-02-26T19:54:24.485Z,100501.66
2023-02-26T19:56:51.167Z,100497.69
2023-02-26T19:59:19.131Z,100503.84
2023-02-26T20:01:49.231Z,100492.50
2023-02-26T20:04:17.039Z,100498.66
2023-02-26T20:06:44.061Z,100503.94
2023-02-26T20:09:12.092Z,100518.75
2023-02-26T20:11:39.652Z,100508.97
2023-02-26T20:14:06.782Z,100522.09
2023-02-26T20:16:33.518Z,100522.31
2023-02-26T20:19:00.231Z,100510.22
2023-02-26T20:21:27.458Z,100524.38
2023-02-26T20:23:54.423Z,100525.22
2023-02-26T20:26:21.142Z,100526.88
2023-02-26T20:28:48.071Z,100522.44
2023-02-26T20:31:14.902Z,100520.72
2023-02-26T20:33:41.899Z,100521.47
2023-02-26T20:36:09.767Z,100528.81
2023-02-26T20:38:36.713Z,100532.91
2023-02-26T20:41:04.054Z,100534.91
2023-02-26T20:43:30.799Z,100536.25
2023-02-26T20:45:57.461Z,100537.25
2023-02-26T20:48:24.711Z,100525.22
2023-02-26T20:50:53.502Z,100542.75
2023-02-26T20:53:21.368Z,100530.75
2023-02-26T20:55:48.192Z,100537.38
2023-02-26T20:58:15.091Z,100547.50
2023-02-26T21:00:42.014Z,100545.59
2023-02-26T21:03:09.048Z,100549.94
2023-02-26T21:05:35.760Z,100552.00
2023-02-26T21:08:04.253Z,100546.59
2023-02-26T21:10:32.478Z,100550.75
2023-02-26T21:12:59.498Z,100546.53
2023-02-26T21:15:26.382Z,100557.19
2023-02-26T21:17:53.080Z,100562.41
2023-02-26T21:20:22.045Z,100562.44
2023-02-26T21:22:49.430Z,100569.56
2023-02-26T21:25:16.648Z,100565.75
2023-02-26T21:27:43.305Z,100582.72
2023-02-26T21:30:11.999Z,100578.41
2023-02-26T21:32:39.054Z,100567.03
2023-02-26T21:35:07.275Z,100563.69
2023-02-26T21:37:34.147Z,100583.53
2023-02-26T21:40:00.929Z,100573.19
2023-02-26T21:42:27.769Z,100580.56
2023-02-26T21:44:54.548Z,100572.53
2023-02-26T21:47:21.327Z,100571.56
2023-02-26T21:49:48.235Z,100576.66
2023-02-26T21:52:14.991Z,100572.28
2023-02-26T21:54:41.847Z,100573.56
2023-02-26T21:57:08.777Z,100577.44
2023-02-26T21:59:35.565Z,100566.19
2023-02-26T22:02:02.744Z,100570.41
2023-02-26T22:04:29.850Z,100579.09
2023-02-26T22:06:57.110Z,100571.31
2023-02-26T22:09:23.952Z,100580.91
2023-02-26T22:11:50.685Z,100584.28
2023-02-26T22:14:17.569Z,100572.09
2023-02-26T22:16:44.510Z,100588.22
2023-02-26T22:19:11.413Z,100589.94
2023-02-26T22:21:38.554Z,100584.50
2023-02-26T22:24:06.032Z,100594.09
2023-02-26T22:26:32.923Z,100583.97
2023-02-26T22:29:00.883Z,100590.69
2023-02-26T22:31:29.453Z,100594.66
2023-02-26T22:33:57.327Z,100578.22
2023-02-26T22:36:24.977Z,100585.59
2023-02-26T22:38:51.715Z,100594.22
2023-02-26T22:41:18.486Z,100588.50
2023-02-26T22:43:45.176Z,100583.91
2023-02-26T22:46:11.942Z,100590.50
2023-02-26T22:48:38.651Z,100590.00
2023-02-26T22:51:05.569Z,100590.84
2023-02-26T22:53:32.321Z,100598.63
2023-02-26T22:55:59.216Z,100593.44
2023-02-26T22:58:26.109Z,100592.72
2023-02-26T23:01:19.343Z,100612.34
2023-02-26T23:03:46.217Z,100599.03
2023-02-26T23:06:13.434Z,100598.09
2023-02-26T23:08:40.357Z,100600.03
2023-02-26T23:11:07.401Z,100606.06
2023-02-26T23:13:35.504Z,100617.78
2023-02-26T23:16:03.453Z,100590.50
2023-02-26T23:18:30.230Z,100594.69
2023-02-26T23:20:56.965Z,100600.94
2023-02-26T23:23:23.686Z,100601.69
2023-02-26T23:25:50.416Z,100598.38
2023-02-26T23:28:17.111Z,100600.78
2023-02-26T23:30:44.395Z,100601.69
2023-02-26T23:33:11.929Z,100606.91
2023-02-26T23:35:38.642Z,100600.81
2023-02-26T23:38:06.046Z,100597.38
2023-02-26T23:40:33.212Z,100594.94
2023-02-26T23:43:00.132Z,100605.31
2023-02-26T23:45:26.824Z,100600.09
2023-02-26T23:47:53.583Z,100594.75
2023-02-26T23:50:20.642Z,100602.91
2023-02-26T23:52:47.389Z,100594.22
2023-02-26T23:55:13.981Z,100596.03
2023-02-26T23:57:40.801Z,100606.69
